This is the latest recevied weather packets stored in our database for station/object AG1T-1. If no packets are shown the sender has not sent any weather packets the latest 10 day(s).
| Time | Temp. | Humidity | Pressure | Rain* | Wind** | Luminosity | Snow |
|---|---|---|---|---|---|---|---|
| 1777596003 | 16.11° C | 34% | 1020.6 hPa | 0 mm | - | 406 W/m² | - |
| 1777595403 | 16.67° C | 29% | 1020.6 hPa | 0 mm | - | 464 W/m² | - |
| 1777594803 | 17.78° C | 26% | 1020.8 hPa | 0 mm | - | 496 W/m² | - |
| 1777594203 | 17.78° C | 26% | 1020.5 hPa | 0 mm | - | 522 W/m² | - |
| 1777593603 | 17.22° C | 27% | 1020.4 hPa | 0 mm | - | 515 W/m² | - |
| 1777593003 | 17.22° C | 26% | 1020.5 hPa | 0 mm | - | 526 W/m² | - |
| 1777591803 | 17.22° C | 26% | 1020.5 hPa | 0 mm | - | 559 W/m² | - |
| 1777591203 | 17.78° C | 25% | 1020.6 hPa | 0 mm | - | 559 W/m² | - |
| 1777590603 | 17.78° C | 25% | 1020.6 hPa | 0 mm | - | 585 W/m² | - |
| 1777590003 | 17.78° C | 26% | 1020.7 hPa | 0 mm | - | 613 W/m² | - |
| 1777589403 | 17.78° C | 28% | 1020.7 hPa | 0 mm | - | 631 W/m² | - |
| 1777588803 | 17.22° C | 29% | 1020.8 hPa | 0 mm | - | 659 W/m² | - |
| 1777588203 | 17.22° C | 30% | 1021.1 hPa | 0 mm | - | 682 W/m² | - |
| 1777587603 | 17.22° C | 28% | 1021.1 hPa | 0 mm | - | 705 W/m² | - |
| 1777587003 | 17.78° C | 28% | 1021.2 hPa | 0 mm | - | 728 W/m² | - |
| 1777586403 | 17.22° C | 30% | 1021.4 hPa | 0 mm | - | 745 W/m² | - |
| 1777585803 | 16.67° C | 35% | 1021.5 hPa | 0 mm | - | 773 W/m² | - |
| 1777585203 | 16.67° C | 32% | 1021.6 hPa | 0 mm | - | 441 W/m² | - |
| 1777584603 | 16.11° C | 32% | 1021.8 hPa | 0 mm | - | 786 W/m² | - |
| 1777584003 | 16.11° C | 31% | 1021.9 hPa | 0 mm | - | 554 W/m² | - |
| 1777583403 | 15.56° C | 33% | 1022 hPa | 0 mm | - | 459 W/m² | - |
| 1777582803 | 15.56° C | 34% | 1022.1 hPa | 0 mm | - | 432 W/m² | - |
| 1777582203 | 15.56° C | 35% | 1022.2 hPa | 0 mm | - | 450 W/m² | - |
| 1777581603 | 15° C | 35% | 1022.1 hPa | 0 mm | - | 459 W/m² | - |
| 1777581003 | 15.56° C | 32% | 1022.1 hPa | 0 mm | - | 445 W/m² | - |
* Rain latest hour (hover to see other rain measurements)
** Current wind speed in m/s (hover to see current wind gust speed)